Time;durP1;ratioP1;P1;durP2;ratioP2;P2;SDS_P1;SDS_P2;PMS_P1;PMS_P2;Temp;Humidity;BMP_temperature;BMP_pressure;BME280_temperature;BME280_humidity;BME280_pressure;Samples;Min_cycle;Max_cycle;Signal;HPM_P1;HPM_P2
2020/12/19 00:02:00;;;;;;;21.83;15.73;;;;;;;22.32;41.04;95967.69;4922768;29;20056;-77
2020/12/19 00:04:25;;;;;;;23.88;15.98;;;;;;;22.34;41.35;95968.69;4922679;29;20552;-78
2020/12/19 00:06:50;;;;;;;25.00;15.73;;;;;;;22.36;41.11;95970.91;4907621;29;20044;-78
2020/12/19 00:09:16;;;;;;;24.42;16.67;;;;;;;22.31;41.42;95969.63;4924970;29;20500;-77
2020/12/19 00:11:44;;;;;;;24.92;16.00;;;;;;;22.30;41.43;95960.00;4907430;29;20019;-77
2020/12/19 00:14:10;;;;;;;21.67;16.35;;;;;;;22.27;41.27;95963.69;4904923;29;20050;-77
2020/12/19 00:16:35;;;;;;;23.27;16.75;;;;;;;22.24;41.26;95975.53;4922891;29;20060;-77
2020/12/19 00:19:05;;;;;;;21.83;15.25;;;;;;;22.24;41.39;95970.06;4922983;29;20031;-77
2020/12/19 00:21:34;;;;;;;24.27;16.60;;;;;;;22.18;41.49;95971.97;4924391;29;20775;-76
2020/12/19 00:24:00;;;;;;;23.10;16.77;;;;;;;22.22;41.26;95972.50;4922929;29;20099;-77
2020/12/19 00:26:36;;;;;;;23.20;15.98;;;;;;;22.19;41.46;95973.44;4907013;29;20035;-77
2020/12/19 00:29:02;;;;;;;22.73;16.33;;;;;;;22.17;41.37;95975.91;4937798;28;20471;-76
2020/12/19 00:31:28;;;;;;;23.90;16.55;;;;;;;22.14;41.48;95979.56;4938889;28;20028;-80
2020/12/19 00:33:53;;;;;;;23.50;16.42;;;;;;;22.10;41.59;95976.28;4907079;29;20090;-77
2020/12/19 00:36:19;;;;;;;26.27;17.88;;;;;;;22.12;41.40;95984.75;4922907;29;20024;-76
2020/12/19 00:38:44;;;;;;;25.58;17.10;;;;;;;22.11;41.36;95983.25;4925042;29;20885;-77
2020/12/19 00:41:16;;;;;;;24.20;16.73;;;;;;;22.08;41.46;95978.75;4924963;29;20024;-76
2020/12/19 00:43:41;;;;;;;23.02;16.73;;;;;;;22.07;41.54;95982.69;4908428;29;20050;-77
2020/12/19 00:46:10;;;;;;;24.27;16.73;;;;;;;22.03;41.66;95982.16;4928407;29;20032;-77
2020/12/19 00:48:36;;;;;;;24.52;17.13;;;;;;;21.99;41.54;95976.19;4925358;29;20028;-77
2020/12/19 00:51:01;;;;;;;23.13;16.67;;;;;;;22.00;41.59;95980.41;4926241;29;20024;-77
2020/12/19 00:53:27;;;;;;;24.25;16.83;;;;;;;21.93;41.81;95978.09;4926714;29;20035;-77
2020/12/19 00:55:52;;;;;;;23.35;16.67;;;;;;;22.00;41.51;95983.13;4910414;29;20024;-77
2020/12/19 00:58:17;;;;;;;25.27;17.52;;;;;;;21.93;41.75;95978.09;4926809;29;20050;-77
2020/12/19 01:00:43;;;;;;;24.70;16.83;;;;;;;21.94;41.69;95973.38;4910482;29;20039;-77
2020/12/19 01:03:08;;;;;;;23.50;16.95;;;;;;;21.94;41.81;95974.16;4910511;29;20031;-78
2020/12/19 01:05:34;;;;;;;23.23;16.55;;;;;;;21.90;41.85;95969.38;4909308;29;20486;-77
2020/12/19 01:07:59;;;;;;;27.55;17.80;;;;;;;21.89;41.70;95970.63;4926905;29;20036;-76
2020/12/19 01:10:25;;;;;;;25.83;18.67;;;;;;;21.90;41.89;95956.53;4926586;29;20028;-76
2020/12/19 01:12:50;;;;;;;27.15;18.05;;;;;;;21.90;41.58;95963.94;4928755;29;20048;-77
2020/12/19 01:15:16;;;;;;;24.25;17.13;;;;;;;21.86;41.91;95955.25;4930303;29;20047;-76
2020/12/19 01:17:41;;;;;;;26.65;18.02;;;;;;;21.78;41.76;95954.13;4895480;29;20038;-80
2020/12/19 01:20:06;;;;;;;25.38;17.63;;;;;;;21.82;41.72;95957.41;4928066;29;20035;-78
2020/12/19 01:22:33;;;;;;;24.80;16.73;;;;;;;21.82;41.80;95954.69;4910845;29;20516;-77
2020/12/19 01:24:58;;;;;;;25.85;17.73;;;;;;;21.78;42.05;95954.13;4926514;29;20504;-75
2020/12/19 01:27:24;;;;;;;23.83;17.30;;;;;;;21.67;41.92;95943.13;4925942;29;20193;-75
2020/12/19 01:29:49;;;;;;;26.27;18.10;;;;;;;21.75;41.74;95944.22;4926131;29;20039;-77
2020/12/19 01:32:14;;;;;;;28.73;18.00;;;;;;;21.78;41.92;95948.69;4909662;29;20028;-77
2020/12/19 01:34:40;;;;;;;25.25;17.67;;;;;;;21.74;41.99;95950.91;4925545;29;20426;-77
2020/12/19 01:37:05;;;;;;;27.80;18.38;;;;;;;21.74;41.94;95948.19;4909809;29;20496;-77
2020/12/19 01:39:31;;;;;;;27.85;18.48;;;;;;;21.69;42.03;95944.16;4932572;29;20035;-78
2020/12/19 01:41:56;;;;;;;27.85;18.20;;;;;;;21.70;41.98;95944.91;4926445;29;20028;-76
2020/12/19 01:44:22;;;;;;;27.75;18.42;;;;;;;21.65;42.17;95940.91;4909870;29;20058;-75
2020/12/19 01:46:58;;;;;;;26.92;17.75;;;;;;;21.67;42.07;95943.91;4910374;29;20016;-77
2020/12/19 01:49:26;;;;;;;28.55;18.25;;;;;;;21.68;41.96;95950.09;4925805;29;20049;-77
2020/12/19 01:51:53;;;;;;;26.92;18.25;;;;;;;21.65;42.06;95951.03;4925571;29;20035;-77
2020/12/19 01:54:20;;;;;;;25.35;17.65;;;;;;;21.63;41.82;95953.47;4925245;29;20027;-77
2020/12/19 01:56:58;;;;;;;25.52;18.30;;;;;;;21.62;42.18;95951.97;4909696;29;20028;-77
2020/12/19 01:59:25;;;;;;;27.45;18.52;;;;;;;21.62;42.12;95951.97;4925721;29;20621;-78
2020/12/19 02:01:58;;;;;;;26.20;18.38;;;;;;;21.60;42.03;95954.44;4925407;29;20039;-78
2020/12/19 02:04:24;;;;;;;25.23;17.67;;;;;;;21.60;42.02;95949.00;4894482;29;20042;-75
2020/12/19 02:06:51;;;;;;;27.55;18.48;;;;;;;21.51;42.22;95935.53;4941534;29;20428;-75
2020/12/19 02:09:18;;;;;;;27.60;18.42;;;;;;;21.58;42.08;95945.97;4910187;29;20027;-75
2020/12/19 02:11:43;;;;;;;27.05;17.65;;;;;;;21.56;42.14;95948.44;4925511;29;20102;-77
2020/12/19 02:14:09;;;;;;;28.42;18.90;;;;;;;21.55;42.12;95952.38;4909275;29;20135;-77
2020/12/19 02:16:35;;;;;;;26.55;18.00;;;;;;;21.58;42.21;95957.63;4926127;29;20078;-75
2020/12/19 02:19:00;;;;;;;26.45;18.35;;;;;;;21.60;42.00;95954.44;4926879;29;20039;-75
2020/12/19 02:21:26;;;;;;;28.73;19.35;;;;;;;21.52;42.23;95943.22;4926864;29;20023;-75
2020/12/19 02:23:51;;;;;;;25.40;18.00;;;;;;;21.51;42.24;95946.41;4925892;29;20090;-75
2020/12/19 02:26:17;;;;;;;27.52;18.27;;;;;;;21.52;42.01;95943.22;4926642;29;20028;-77
2020/12/19 02:28:42;;;;;;;29.38;18.70;;;;;;;21.52;42.08;95950.59;4908238;29;20063;-78
2020/12/19 02:31:08;;;;;;;28.08;19.10;;;;;;;21.48;42.40;95941.91;4926001;29;20028;-76
2020/12/19 02:33:33;;;;;;;26.45;18.38;;;;;;;21.49;42.25;95943.41;4941095;28;20045;-75
2020/12/19 02:35:58;;;;;;;25.75;17.38;;;;;;;21.49;42.01;95943.41;4926071;29;20024;-79
2020/12/19 02:38:24;;;;;;;27.60;18.05;;;;;;;21.47;42.17;95934.97;4924831;29;20028;-78
2020/12/19 02:40:49;;;;;;;26.50;17.90;;;;;;;21.46;42.34;95944.34;4924528;29;20882;-77
2020/12/19 02:43:15;;;;;;;23.58;18.13;;;;;;;21.46;42.30;95942.41;4892437;29;20050;-77
2020/12/19 02:45:40;;;;;;;29.33;19.10;;;;;;;21.47;42.20;95940.41;4909079;29;20031;-77
2020/12/19 02:48:06;;;;;;;27.90;18.30;;;;;;;21.41;42.32;95950.44;4925062;29;20016;-77
2020/12/19 02:50:31;;;;;;;25.90;17.17;;;;;;;21.45;42.07;95948.28;4908608;29;20036;-76
2020/12/19 02:52:56;;;;;;;26.50;17.63;;;;;;;21.44;42.36;95935.91;4923523;29;20028;-77
2020/12/19 02:55:22;;;;;;;24.50;16.85;;;;;;;21.40;42.33;95940.78;4924096;29;20024;-76
2020/12/19 02:57:47;;;;;;;27.45;18.45;;;;;;;21.38;42.47;95943.22;4924519;29;20079;-77
2020/12/19 03:00:13;;;;;;;25.75;17.08;;;;;;;21.44;42.26;95946.78;4908825;29;20031;-77
2020/12/19 03:02:38;;;;;;;24.83;17.73;;;;;;;21.41;42.23;95936.84;4923924;29;20038;-79
2020/12/19 03:05:04;;;;;;;25.73;17.85;;;;;;;21.40;42.30;95951.63;4925076;29;20039;-76
2020/12/19 03:07:29;;;;;;;27.48;17.95;;;;;;;21.42;42.21;95951.94;4924002;29;20564;-77
2020/12/19 03:09:54;;;;;;;27.35;18.02;;;;;;;21.37;42.49;95947.16;4908719;29;20044;-78
2020/12/19 03:12:20;;;;;;;27.38;17.70;;;;;;;21.39;42.19;95942.00;4907278;29;20492;-77
2020/12/19 03:14:45;;;;;;;26.92;18.27;;;;;;;21.37;42.29;95947.16;4892738;29;20075;-77
2020/12/19 03:17:11;;;;;;;26.35;17.58;;;;;;;21.34;42.42;95947.34;4906705;29;20104;-77
2020/12/19 03:19:36;;;;;;;26.42;17.83;;;;;;;21.36;42.26;95945.69;4922985;29;20036;-76
2020/12/19 03:22:01;;;;;;;26.70;18.08;;;;;;;21.33;42.39;95952.06;4908132;29;20036;-77
2020/12/19 03:24:27;;;;;;;25.25;17.92;;;;;;;21.34;42.15;95953.53;4940225;28;20645;-77
2020/12/19 03:26:52;;;;;;;27.83;18.08;;;;;;;21.32;42.33;95945.13;4908241;29;20390;-77
2020/12/19 03:29:18;;;;;;;25.10;16.98;;;;;;;21.32;42.42;95945.13;4923368;29;20413;-78
2020/12/19 03:31:43;;;;;;;29.73;19.15;;;;;;;21.32;42.65;95949.81;4922790;29;20499;-76
2020/12/19 03:34:08;;;;;;;26.10;18.08;;;;;;;21.32;42.49;95945.13;4923884;29;20040;-77
2020/12/19 03:36:34;;;;;;;27.27;17.25;;;;;;;21.30;42.40;95939.41;4926841;29;20020;-76
2020/12/19 03:38:59;;;;;;;27.15;17.95;;;;;;;21.31;42.34;95949.03;4927027;29;20058;-76
2020/12/19 03:41:25;;;;;;;24.67;16.65;;;;;;;21.29;42.46;95946.06;4924762;29;20140;-76
2020/12/19 03:43:50;;;;;;;26.80;17.77;;;;;;;21.29;42.82;95951.50;4923654;29;20786;-76
2020/12/19 03:46:16;;;;;;;25.60;17.40;;;;;;;21.26;42.35;95947.00;4923212;29;20031;-76
2020/12/19 03:48:41;;;;;;;25.42;17.38;;;;;;;21.28;42.32;95950.00;4907094;29;20087;-79
2020/12/19 03:51:07;;;;;;;25.58;17.58;;;;;;;21.32;42.29;95955.97;4921986;29;20110;-77
2020/12/19 03:53:32;;;;;;;28.20;17.77;;;;;;;21.39;42.37;95955.59;4925062;29;20032;-76
2020/12/19 03:55:57;;;;;;;26.67;17.80;;;;;;;21.48;42.32;95952.78;4907634;29;20118;-76
2020/12/19 03:58:23;;;;;;;27.15;17.48;;;;;;;21.56;42.31;95943.00;4924847;29;20404;-76
2020/12/19 04:00:48;;;;;;;27.90;18.15;;;;;;;21.59;42.23;95947.50;4907533;29;20047;-75
2020/12/19 04:03:14;;;;;;;26.05;16.75;;;;;;;21.63;41.97;95953.47;4923111;29;20047;-76
2020/12/19 04:05:39;;;;;;;24.88;15.80;;;;;;;21.67;41.85;95954.00;4922593;29;20040;-76
2020/12/19 04:08:04;;;;;;;24.95;16.92;;;;;;;21.69;42.02;95951.59;4925023;29;20028;-75
2020/12/19 04:10:30;;;;;;;26.48;16.88;;;;;;;21.72;42.01;95950.59;4924880;29;20408;-76
2020/12/19 04:12:55;;;;;;;25.73;16.30;;;;;;;21.73;41.95;95958.28;4922045;29;20039;-76
2020/12/19 04:15:23;;;;;;;23.30;15.98;;;;;;;21.74;42.02;95953.63;4924673;29;20036;-75
2020/12/19 04:17:50;;;;;;;26.38;16.98;;;;;;;21.75;41.88;95949.66;4924383;29;20023;-76
2020/12/19 04:20:16;;;;;;;25.55;16.08;;;;;;;21.76;41.85;95951.16;4922842;29;20036;-77
2020/12/19 04:22:41;;;;;;;24.63;15.13;;;;;;;21.80;41.88;95959.88;4923428;29;20507;-76
2020/12/19 04:25:09;;;;;;;26.58;17.20;;;;;;;21.79;41.80;95961.09;4907431;29;20051;-76
2020/12/19 04:27:34;;;;;;;24.50;16.48;;;;;;;21.82;42.00;95960.13;4907266;29;23239;-76
2020/12/19 04:30:00;;;;;;;24.63;15.95;;;;;;;21.80;41.88;95954.44;4922722;29;20486;-79
2020/12/19 04:32:25;;;;;;;22.55;15.60;;;;;;;21.87;41.73;95967.59;4922868;29;20028;-76
2020/12/19 04:34:50;;;;;;;23.63;15.70;;;;;;;21.81;41.89;95955.91;4923278;29;20047;-76
2020/12/19 04:37:16;;;;;;;23.17;15.43;;;;;;;21.88;41.80;95963.66;4923970;29;20035;-76
2020/12/19 04:39:41;;;;;;;23.95;16.30;;;;;;;21.89;41.55;95954.31;4907765;29;20036;-76
2020/12/19 04:42:07;;;;;;;26.00;16.38;;;;;;;21.91;41.73;95960.00;4906532;29;20110;-76
2020/12/19 04:44:32;;;;;;;23.55;16.35;;;;;;;21.91;41.64;95957.28;4906798;29;20043;-76
2020/12/19 04:46:57;;;;;;;23.27;14.95;;;;;;;21.90;41.65;95963.94;4906926;29;20036;-77
2020/12/19 04:49:23;;;;;;;23.17;15.43;;;;;;;21.92;41.64;95962.97;4906805;29;20031;-77
2020/12/19 04:51:48;;;;;;;24.23;15.50;;;;;;;21.93;41.67;95961.75;4907509;29;20028;-76
2020/12/19 04:54:14;;;;;;;23.25;15.88;;;;;;;21.93;41.60;95961.75;4923379;29;20024;-76
2020/12/19 04:56:39;;;;;;;23.90;15.90;;;;;;;21.94;41.83;95957.84;4906875;29;20047;-76
2020/12/19 04:59:05;;;;;;;22.38;14.95;;;;;;;21.96;41.65;95960.81;4922496;29;20028;-76
2020/12/19 05:01:31;;;;;;;23.48;15.25;;;;;;;21.97;41.49;95967.75;4906253;29;20031;-78
2020/12/19 05:03:56;;;;;;;24.98;16.50;;;;;;;21.97;41.71;95970.47;4922522;29;20035;-75
2020/12/19 05:06:23;;;;;;;24.38;15.52;;;;;;;21.98;41.47;95971.94;4906562;29;20744;-75
2020/12/19 05:08:49;;;;;;;22.33;14.40;;;;;;;21.97;41.72;95973.19;4939312;28;20040;-76
2020/12/19 05:11:15;;;;;;;22.08;14.68;;;;;;;21.99;41.52;95976.19;4906176;29;20045;-77
2020/12/19 05:13:41;;;;;;;21.60;14.93;;;;;;;22.00;41.59;95980.41;4906096;29;20113;-77
2020/12/19 05:16:11;;;;;;;20.52;13.95;;;;;;;22.02;41.53;95980.66;4906707;29;20028;-77
2020/12/19 05:18:39;;;;;;;22.77;14.75;;;;;;;21.97;41.36;95973.19;4921557;29;20028;-77
2020/12/19 05:21:05;;;;;;;22.85;15.45;;;;;;;22.02;41.46;95975.22;4923535;29;20036;-77
2020/12/19 05:23:44;;;;;;;22.75;14.80;;;;;;;22.03;41.46;95976.72;4923958;29;20873;-77
2020/12/19 05:26:11;;;;;;;21.05;14.80;;;;;;;22.03;41.36;95976.72;4906650;29;20516;-77
2020/12/19 05:28:38;;;;;;;21.85;14.90;;;;;;;22.04;41.30;95982.91;4908294;29;20050;-76
2020/12/19 05:31:04;;;;;;;22.60;15.93;;;;;;;22.07;41.19;95981.94;4909366;29;20417;-77
2020/12/19 05:33:42;;;;;;;21.85;14.85;;;;;;;22.07;41.07;95979.22;4926085;29;20038;-76
2020/12/19 05:36:20;;;;;;;23.73;14.90;;;;;;;22.11;41.21;95975.09;4911532;29;20079;-79
2020/12/19 05:38:46;;;;;;;23.67;14.90;;;;;;;22.13;41.23;95980.78;4940902;28;20035;-78
2020/12/19 05:41:11;;;;;;;22.95;14.32;;;;;;;22.11;41.34;95972.38;4923166;29;20099;-79
2020/12/19 05:43:48;;;;;;;23.23;15.32;;;;;;;22.12;41.32;95979.31;4927939;29;20114;-78
2020/12/19 05:46:32;;;;;;;20.13;13.55;;;;;;;22.13;41.50;95980.78;4922819;29;20032;-79
2020/12/19 05:48:58;;;;;;;22.58;14.77;;;;;;;22.11;41.42;95977.81;4924452;29;20036;-79
2020/12/19 05:51:27;;;;;;;23.08;14.77;;;;;;;22.15;41.27;95983.78;4909420;29;20091;-80
2020/12/19 05:53:53;;;;;;;22.45;14.93;;;;;;;22.14;41.30;95982.28;4926766;29;20065;-78
2020/12/19 05:56:21;;;;;;;21.30;14.88;;;;;;;22.18;41.33;95993.72;4909101;29;20036;-80
2020/12/19 05:58:47;;;;;;;21.95;14.90;;;;;;;22.12;41.40;95984.75;4930759;29;20039;-79
2020/12/19 06:01:14;;;;;;;22.10;15.02;;;;;;;22.11;41.40;95988.69;4910612;29;20059;-78
2020/12/19 06:03:40;;;;;;;21.17;14.02;;;;;;;22.16;41.22;95996.16;4940527;28;20039;-79
2020/12/19 06:06:05;;;;;;;22.10;14.10;;;;;;;22.17;41.57;96003.09;4937691;28;20058;-79
2020/12/19 06:08:30;;;;;;;23.08;15.27;;;;;;;22.15;41.44;96000.13;4924523;29;20036;-78
2020/12/19 06:10:56;;;;;;;22.23;14.10;;;;;;;22.13;41.55;96007.25;4908864;29;20032;-81
2020/12/19 06:13:21;;;;;;;21.65;15.05;;;;;;;22.06;41.54;96013.84;4924659;29;20063;-79
2020/12/19 06:15:52;;;;;;;20.88;14.07;;;;;;;22.09;41.80;96006.69;4907677;29;20033;-80
2020/12/19 06:18:48;;;;;;;20.90;14.20;;;;;;;22.08;41.66;96011.41;4924724;29;20086;-80
2020/12/19 06:21:14;;;;;;;23.60;14.75;;;;;;;22.02;41.75;95999.69;4935963;28;20055;-78
2020/12/19 06:23:39;;;;;;;23.52;14.82;;;;;;;22.09;41.44;96002.03;4941245;28;20051;-78
2020/12/19 06:26:05;;;;;;;22.77;13.80;;;;;;;22.13;41.28;96007.97;4925137;29;20465;-88
2020/12/19 06:28:40;;;;;;;24.38;15.50;;;;;;;22.19;41.25;96006.06;4926072;29;20062;-85
2020/12/19 06:31:18;;;;;;;21.70;13.93;;;;;;;22.15;41.38;96005.56;4926386;29;20040;-79
2020/12/19 06:33:46;;;;;;;21.35;14.10;;;;;;;22.15;41.58;96011.00;4937335;29;20039;-79
2020/12/19 06:36:19;;;;;;;22.35;14.57;;;;;;;22.25;41.17;96023.25;4925192;29;20419;-79
2020/12/19 06:38:45;;;;;;;20.58;13.88;;;;;;;22.25;41.52;96017.81;4913138;29;20043;-79
2020/12/19 06:41:41;;;;;;;20.42;14.52;;;;;;;22.29;41.51;96020.34;4925341;29;20028;-76
2020/12/19 06:44:25;;;;;;;22.40;14.60;;;;;;;22.34;41.50;96020.38;4922643;29;20028;-77
2020/12/19 06:46:51;;;;;;;22.23;14.13;;;;;;;22.38;41.51;96017.47;4925242;29;20048;-77
2020/12/19 06:49:22;;;;;;;22.67;14.77;;;;;;;22.42;41.23;96013.31;4926374;29;20504;-83
2020/12/19 06:52:07;;;;;;;21.17;14.20;;;;;;;22.49;41.25;96018.31;4923011;29;20070;-82
2020/12/19 06:54:48;;;;;;;23.05;13.80;;;;;;;22.56;41.03;96023.34;4923987;29;20036;-81
2020/12/19 06:57:30;;;;;;;22.73;14.55;;;;;;;22.65;40.62;96017.75;4909145;29;20036;-85
2020/12/19 07:00:14;;;;;;;21.30;14.23;;;;;;;22.73;40.93;96027.00;4923986;29;20071;-79
2020/12/19 07:02:53;;;;;;;21.38;14.23;;;;;;;22.80;40.52;96024.59;4923428;29;20040;-79
2020/12/19 07:05:22;;;;;;;19.35;13.52;;;;;;;22.83;40.58;96015.47;4922984;29;20031;-79
2020/12/19 07:07:48;;;;;;;20.45;13.48;;;;;;;22.88;40.12;96018.25;4924552;29;20484;-79
2020/12/19 07:10:13;;;;;;;20.00;13.18;;;;;;;22.97;40.36;96029.00;4908932;29;20036;-77
2020/12/19 07:12:43;;;;;;;;;;;;;;;23.04;40.45;96025.81;4925395;29;20425;-78
2020/12/19 07:15:10;;;;;;;20.15;13.52;;;;;;;23.09;40.26;96027.88;4907297;29;19919;-81
2020/12/19 07:17:46;;;;;;;20.63;13.88;;;;;;;23.17;39.82;96031.66;4926077;29;20086;-88
2020/12/19 07:20:12;;;;;;;21.05;13.38;;;;;;;23.24;39.87;96033.91;4923909;29;20208;-80
2020/12/19 07:22:37;;;;;;;20.92;13.48;;;;;;;23.27;39.97;96032.22;4889468;29;20035;-78
2020/12/19 07:25:03;;;;;;;18.42;12.57;;;;;;;23.31;39.81;96028.03;4942405;28;20039;-81
2020/12/19 07:27:28;;;;;;;19.67;13.48;;;;;;;23.32;39.46;96017.88;4929436;29;20504;-77
2020/12/19 07:29:58;;;;;;;17.75;12.80;;;;;;;23.48;39.41;96031.63;4927920;29;20046;-78
2020/12/19 07:32:23;;;;;;;18.38;12.45;;;;;;;23.53;39.74;96028.19;4926318;29;20035;-78
2020/12/19 07:34:53;;;;;;;19.92;13.18;;;;;;;23.60;39.20;96033.19;4907008;29;20036;-77
2020/12/19 07:37:18;;;;;;;18.98;13.27;;;;;;;23.64;39.23;96031.03;4923718;29;20051;-77
2020/12/19 07:39:44;;;;;;;20.05;13.18;;;;;;;23.67;39.29;96027.31;4909593;29;20599;-78
2020/12/19 07:42:09;;;;;;;19.52;12.98;;;;;;;23.67;38.74;96017.16;4921832;29;21369;-77
2020/12/19 07:44:35;;;;;;;19.50;13.35;;;;;;;23.79;39.06;96028.88;4940229;28;20040;-77
2020/12/19 07:47:02;;;;;;;19.33;13.02;;;;;;;23.80;39.00;96031.13;4923170;29;20038;-81
2020/12/19 07:49:43;;;;;;;18.83;12.90;;;;;;;23.87;38.62;96031.41;4922174;29;20504;-78
2020/12/19 07:52:12;;;;;;;19.75;13.13;;;;;;;23.93;38.39;96034.94;4921188;29;20408;-77
2020/12/19 07:54:38;;;;;;;17.73;13.03;;;;;;;23.96;38.50;96028.50;4923768;29;20059;-78
2020/12/19 07:57:04;;;;;;;17.83;12.10;;;;;;;23.97;38.60;96029.22;4922981;29;20047;-76
2020/12/19 07:59:29;;;;;;;18.45;12.35;;;;;;;23.99;38.59;96027.50;4906971;29;20790;-78
2020/12/19 08:01:55;;;;;;;20.23;12.85;;;;;;;24.05;38.64;96031.03;4907314;29;20385;-80
2020/12/19 08:04:20;;;;;;;18.13;12.88;;;;;;;24.03;38.79;96028.00;4907248;29;20461;-81
2020/12/19 08:06:47;;;;;;;19.25;11.98;;;;;;;24.08;38.46;96035.50;4924149;29;20024;-80
2020/12/19 08:09:19;;;;;;;18.02;12.40;;;;;;;24.14;38.40;96011.72;4925237;29;20036;-78
2020/12/19 08:11:45;;;;;;;18.55;12.60;;;;;;;24.18;37.64;96001.28;4921966;29;20406;-80
2020/12/19 08:14:13;;;;;;;21.63;13.70;;;;;;;24.28;37.82;96010.75;4921947;29;20032;-76
2020/12/19 08:16:38;;;;;;;19.95;13.43;;;;;;;24.31;37.32;96020.69;4938349;28;20032;-82
2020/12/19 08:19:04;;;;;;;20.38;13.43;;;;;;;24.31;36.87;96014.50;4923465;29;20032;-80
2020/12/19 08:21:30;;;;;;;22.25;13.98;;;;;;;24.27;36.92;96014.72;4940337;28;20500;-83
2020/12/19 08:23:55;;;;;;;21.27;14.68;;;;;;;24.32;36.66;96022.19;4909564;29;21610;-80
2020/12/19 08:26:21;;;;;;;21.58;13.98;;;;;;;24.33;36.54;96022.97;4945079;28;20032;-81
2020/12/19 08:29:00;;;;;;;20.65;14.02;;;;;;;24.36;36.56;96030.91;4916335;29;20035;-82
2020/12/19 08:31:25;;;;;;;23.85;14.40;;;;;;;24.34;36.47;96036.88;4930928;29;20024;-82
2020/12/19 08:33:51;;;;;;;23.75;14.65;;;;;;;24.41;36.05;96030.22;4898701;29;20047;-78
2020/12/19 08:36:17;;;;;;;22.30;15.00;;;;;;;24.43;36.22;96030.44;4909408;29;20031;-80
2020/12/19 08:38:42;;;;;;;21.67;14.32;;;;;;;24.45;36.18;96030.69;4923743;29;20039;-77
2020/12/19 08:41:17;;;;;;;22.40;14.70;;;;;;;24.37;35.68;96018.75;4924108;29;20091;-81
2020/12/19 08:43:42;;;;;;;22.83;14.65;;;;;;;24.48;36.10;96024.25;4920801;29;20047;-78
2020/12/19 08:46:09;;;;;;;26.05;15.68;;;;;;;24.47;35.41;96020.06;4904692;29;20032;-81
2020/12/19 08:48:35;;;;;;;23.63;15.13;;;;;;;24.53;35.45;96037.94;4923050;29;20035;-79
2020/12/19 08:51:09;;;;;;;22.25;14.88;;;;;;;24.53;35.73;96035.22;4923563;29;20394;-79
2020/12/19 08:53:34;;;;;;;21.33;13.98;;;;;;;24.58;35.74;96044.66;4906918;29;20035;-82
2020/12/19 08:56:12;;;;;;;23.58;14.18;;;;;;;24.61;36.30;96027.28;4890604;29;20032;-81
2020/12/19 08:58:37;;;;;;;22.48;14.60;;;;;;;24.55;36.42;96034.72;4922020;29;20478;-79
2020/12/19 09:01:15;;;;;;;21.15;13.82;;;;;;;24.55;36.51;96019.06;4921446;29;20035;-80
2020/12/19 09:03:41;;;;;;;20.80;13.38;;;;;;;24.64;36.70;96021.56;4940087;28;20051;-79
2020/12/19 09:06:08;;;;;;;20.90;14.20;;;;;;;24.67;36.99;96019.84;4940184;28;20039;-80
2020/12/19 09:08:47;;;;;;;19.90;14.07;;;;;;;24.72;37.15;96016.38;4911887;29;20028;-77
2020/12/19 09:11:28;;;;;;;21.98;14.43;;;;;;;24.73;37.36;96015.16;4926571;29;20031;-77
2020/12/19 09:14:03;;;;;;;19.95;13.18;;;;;;;24.74;37.34;96013.88;4923425;29;20425;-77
2020/12/19 09:16:29;;;;;;;19.67;13.32;;;;;;;24.77;37.46;96007.44;4942082;28;20027;-79
2020/12/19 09:18:54;;;;;;;20.17;13.45;;;;;;;24.72;37.60;96002.72;4909095;29;20471;-77
2020/12/19 09:21:20;;;;;;;21.25;14.55;;;;;;;24.76;37.78;96005.97;4926467;29;21873;-80
2020/12/19 09:23:45;;;;;;;20.73;13.75;;;;;;;24.79;37.99;95994.03;4926351;29;20110;-80
2020/12/19 09:26:10;;;;;;;18.38;12.73;;;;;;;24.75;38.06;95999.00;4926641;29;20031;-81
2020/12/19 09:28:36;;;;;;;20.10;14.07;;;;;;;24.77;38.72;95996.50;4924114;29;20037;-79
2020/12/19 09:31:02;;;;;;;21.08;13.32;;;;;;;24.80;38.49;95990.06;4909045;29;20032;-78
2020/12/19 09:33:27;;;;;;;20.55;13.50;;;;;;;24.83;38.53;95996.03;4910525;29;20040;-76
2020/12/19 09:35:53;;;;;;;19.35;13.38;;;;;;;24.86;38.41;95992.31;4928081;29;20028;-76
2020/12/19 09:38:19;;;;;;;20.67;13.60;;;;;;;24.84;38.95;95988.56;4894597;29;20053;-79
2020/12/19 09:40:45;;;;;;;20.08;13.30;;;;;;;24.87;38.84;95987.56;4939922;28;20028;-87
2020/12/19 09:43:10;;;;;;;19.40;13.07;;;;;;;24.89;38.86;95972.19;4917241;29;20098;-81
2020/12/19 09:45:36;;;;;;;22.27;13.73;;;;;;;24.93;39.32;95989.09;4893797;29;20031;-77
2020/12/19 09:48:02;;;;;;;20.73;14.23;;;;;;;24.92;39.48;95982.13;4907782;29;20096;-79
2020/12/19 09:50:27;;;;;;;22.73;14.85;;;;;;;24.93;39.53;95986.38;4940703;28;20024;-77
2020/12/19 09:52:53;;;;;;;21.38;13.77;;;;;;;24.92;39.65;95978.66;4924899;29;20063;-79
2020/12/19 09:55:19;;;;;;;21.40;14.27;;;;;;;24.91;39.69;95975.16;4926165;29;20135;-79
2020/12/19 09:57:44;;;;;;;22.42;15.95;;;;;;;24.93;39.94;95972.69;4907078;29;20103;-79
2020/12/19 10:00:10;;;;;;;20.52;13.73;;;;;;;24.96;40.05;95977.16;4913924;29;20028;-82
2020/12/19 10:02:36;;;;;;;21.00;14.80;;;;;;;24.99;40.52;95970.75;4923414;29;20493;-79
2020/12/19 10:05:01;;;;;;;21.02;13.63;;;;;;;24.98;40.56;95974.69;4927699;29;20036;-77
2020/12/19 10:07:27;;;;;;;21.65;14.18;;;;;;;25.03;40.33;95975.94;4909568;29;20025;-80
2020/12/19 10:09:52;;;;;;;25.67;15.73;;;;;;;24.97;39.50;95961.50;4925295;29;20040;-79
2020/12/19 10:12:17;;;;;;;21.63;14.43;;;;;;;25.00;39.87;95966.75;4921461;29;20043;-81
2020/12/19 10:14:43;;;;;;;22.02;14.18;;;;;;;25.02;39.71;95969.75;4924952;29;22695;-79
2020/12/19 10:17:08;;;;;;;21.17;13.13;;;;;;;25.04;39.82;95953.59;4909366;28;20621;-78
2020/12/19 10:19:34;;;;;;;22.33;13.43;;;;;;;25.15;39.51;95939.16;4943733;29;20924;-78
2020/12/19 10:21:59;;;;;;;24.52;14.95;;;;;;;25.20;39.53;95963.78;4943290;28;20028;-76
2020/12/19 10:24:26;;;;;;;22.10;13.98;;;;;;;25.18;39.74;95960.78;4944153;28;20043;-77
2020/12/19 10:26:51;;;;;;;21.77;13.57;;;;;;;25.17;39.73;95956.56;4945328;28;20035;-76
2020/12/19 10:29:17;;;;;;;21.25;13.23;;;;;;;25.12;40.28;95954.56;4928269;29;20038;-76
2020/12/19 10:31:42;;;;;;;22.67;13.98;;;;;;;25.14;40.28;95954.06;4941100;28;20058;-77
2020/12/19 10:34:08;;;;;;;21.45;13.55;;;;;;;25.13;39.87;95950.59;4926575;29;20040;-77
2020/12/19 10:36:33;;;;;;;21.10;13.27;;;;;;;25.11;40.08;95950.38;4947994;28;20031;-76
2020/12/19 10:38:59;;;;;;;21.95;14.15;;;;;;;25.13;39.84;95947.13;4911046;29;20027;-80
2020/12/19 10:41:24;;;;;;;23.00;14.50;;;;;;;25.17;39.52;95945.63;4959289;28;20023;-75
2020/12/19 10:43:49;;;;;;;21.50;13.05;;;;;;;25.16;40.11;95949.59;4945851;28;20043;-75
2020/12/19 10:46:24;;;;;;;20.63;13.63;;;;;;;25.16;39.66;95941.41;4941877;28;20523;-78
2020/12/19 10:48:50;;;;;;;21.25;13.90;;;;;;;25.20;39.38;95932.94;4941737;28;20039;-80
2020/12/19 10:51:15;;;;;;;21.73;14.30;;;;;;;25.18;39.53;95927.25;4943513;28;20117;-83
2020/12/19 10:53:41;;;;;;;21.45;13.35;;;;;;;25.19;39.18;95929.47;4927963;29;20031;-84
2020/12/19 10:56:07;;;;;;;21.10;13.40;;;;;;;25.20;39.23;95936.44;4943630;28;20279;-80
2020/12/19 10:58:32;;;;;;;22.60;13.93;;;;;;;25.24;39.43;95931.44;4927366;29;20546;-80
2020/12/19 11:00:58;;;;;;;18.70;13.10;;;;;;;25.21;39.10;95926.97;4942758;28;20046;-80
2020/12/19 11:03:23;;;;;;;20.52;13.70;;;;;;;25.21;39.02;95921.50;4945220;28;20440;-79
2020/12/19 11:05:49;;;;;;;19.98;13.23;;;;;;;25.17;39.25;95921.03;4944104;28;20046;-80
2020/12/19 11:08:14;;;;;;;19.38;13.40;;;;;;;25.25;38.81;95922.00;4960023;28;20027;-78
2020/12/19 11:10:41;;;;;;;20.67;13.32;;;;;;;25.24;39.00;95914.31;4945187;28;20047;-78
2020/12/19 11:13:07;;;;;;;19.98;12.75;;;;;;;25.28;39.07;95910.06;4942045;28;20380;-77
2020/12/19 11:15:32;;;;;;;21.15;13.75;;;;;;;25.28;38.64;95901.88;4946138;28;20063;-76
2020/12/19 11:17:58;;;;;;;19.73;13.48;;;;;;;25.30;38.74;95901.38;4927830;28;20042;-78